Terminal Aerodrome Forecast
Issued by NWS

Home | Current Version | Previous Version | Text Only | Print | Product List | Glossary On
Versions: 1 2 3 4 5 6 7 8 9 10 11 12 13 14 15 16 17 18 19 20 21 22 23 24 25 26 27 28 29 30 31 32
000
FTUS45 KGJT 230520
TAFMTJ
TAF
KMTJ 230520Z 2306/2406 16010KT P6SM SCT120 BKN200
     FM231400 VRB04KT P6SM SCT100 BKN150
     FM231900 34008KT P6SM VCSH SCT060 BKN120
     FM240300 13010G20KT P6SM VCSH BKN060 OVC100=

USA.gov is the U.S. government's official web portal to all federal, state and local government web resources and services.